Time;durP1;ratioP1;P1;durP2;ratioP2;P2;SDS_P1;SDS_P2;PMS_P1;PMS_P2;Temp;Humidity;BMP_temperature;BMP_pressure;BME280_temperature;BME280_humidity;BME280_pressure;Samples;Min_cycle;Max_cycle;Signal;HPM_P1;HPM_P2
2020/12/07 00:01:15;;;;;;;;;;;;;;;21.26;39.27;99879.31;3122993;27;114170;-63
2020/12/07 00:02:46;;;;;;;;;;;;;;;21.28;39.27;99884.59;3132852;27;114767;-64
2020/12/07 00:04:17;;;;;;;;;;;;;;;21.29;39.36;99886.25;3135144;27;114509;-64
2020/12/07 00:05:48;;;;;;;;;;;;;;;21.30;39.63;99890.72;3137294;27;114382;-64
2020/12/07 00:07:20;;;;;;;;;;;;;;;21.30;39.21;99893.53;3137210;27;114046;-64
2020/12/07 00:08:51;;;;;;;;;;;;;;;21.31;39.26;99889.53;3119613;27;114237;-62
2020/12/07 00:10:22;;;;;;;;;;;;;;;21.31;39.32;99883.91;3132369;27;113864;-63
2020/12/07 00:11:53;;;;;;;;;;;;;;;21.30;38.99;99883.09;3135696;27;114433;-64
2020/12/07 00:13:25;;;;;;;;;;;;;;;21.30;39.34;99883.09;3133578;27;114172;-59
2020/12/07 00:14:56;;;;;;;;;;;;;;;21.32;39.12;99884.72;3136891;27;114219;-60
2020/12/07 00:16:28;;;;;;;;;;;;;;;21.30;39.22;99883.09;3136412;27;114087;-59
2020/12/07 00:18:01;;;;;;;;;;;;;;;21.32;39.32;99887.53;3122258;27;113954;-60
2020/12/07 00:19:32;;;;;;;;;;;;;;;21.31;39.09;99889.53;3130058;27;113909;-60
2020/12/07 00:21:08;;;;;;;;;;;;;;;21.30;39.12;99890.72;3129646;27;113954;-60
2020/12/07 00:22:39;;;;;;;;;;;;;;;21.30;39.13;99887.91;3136421;27;115415;-60
2020/12/07 00:24:12;;;;;;;;;;;;;;;21.28;39.26;99891.03;3122264;27;115203;-60
2020/12/07 00:25:44;;;;;;;;;;;;;;;21.27;39.20;99883.78;3132092;27;114089;-60
2020/12/07 00:27:21;;;;;;;;;;;;;;;21.27;39.21;99892.19;3135225;27;113987;-61
2020/12/07 00:28:53;;;;;;;;;;;;;;;21.26;39.07;99884.09;3134223;27;115455;-60
2020/12/07 00:30:33;;;;;;;;;;;;;;;21.24;39.10;99878.84;3123016;27;115178;-63
2020/12/07 00:32:05;;;;;;;;;;;;;;;21.20;39.11;99877.88;3131293;27;115350;-61
2020/12/07 00:33:36;;;;;;;;;;;;;;;21.17;39.14;99874.91;3134655;27;115364;-59
2020/12/07 00:35:07;;;;;;;;;;;;;;;21.15;38.99;99872.44;3123020;27;115462;-59
2020/12/07 00:36:42;;;;;;;;;;;;;;;21.14;39.08;99881.19;3132348;27;115223;-58
2020/12/07 00:38:13;;;;;;;;;;;;;;;21.17;39.18;99870.09;3125083;27;114614;-57
2020/12/07 00:39:44;;;;;;;;;;;;;;;21.19;39.04;99873.41;3136305;27;115604;-57
2020/12/07 00:41:19;;;;;;;;;;;;;;;21.21;39.22;99868.25;3133741;27;115016;-57
2020/12/07 00:42:50;;;;;;;;;;;;;;;21.23;39.31;99865.13;3140121;27;115427;-57
2020/12/07 00:44:21;;;;;;;;;;;;;;;21.26;39.22;99868.06;3135082;27;116924;-57
2020/12/07 00:45:52;;;;;;;;;;;;;;;21.28;39.41;99865.75;3136899;27;114935;-57
2020/12/07 00:47:23;;;;;;;;;;;;;;;21.30;39.42;99873.84;3122633;27;115979;-58
2020/12/07 00:48:54;;;;;;;;;;;;;;;21.32;39.12;99862.25;3130193;27;116011;-57
2020/12/07 00:50:26;;;;;;;;;;;;;;;21.33;39.03;99861.09;3123061;27;116643;-58
2020/12/07 00:51:57;;;;;;;;;;;;;;;21.34;39.13;99872.00;3123849;27;114656;-57
2020/12/07 00:53:28;;;;;;;;;;;;;;;21.37;39.25;99864.88;3136148;27;115961;-60
2020/12/07 00:55:01;;;;;;;;;;;;;;;21.40;39.41;99867.81;3136039;27;114807;-58
2020/12/07 00:56:33;;;;;;;;;;;;;;;21.41;38.91;99866.66;3134711;27;115877;-59
2020/12/07 00:58:04;;;;;;;;;;;;;;;21.45;39.41;99862.00;3121393;27;115962;-58
2020/12/07 00:59:35;;;;;;;;;;;;;;;21.46;39.31;99863.66;3130401;27;114597;-58
2020/12/07 01:01:08;;;;;;;;;;;;;;;21.47;39.54;99861.66;3136120;27;113848;-59
2020/12/07 01:02:39;;;;;;;;;;;;;;;21.47;39.44;99851.25;3122194;27;115702;-59
2020/12/07 01:04:10;;;;;;;;;;;;;;;21.49;39.53;99857.34;3133154;27;115915;-61
2020/12/07 01:05:42;;;;;;;;;;;;;;;21.52;39.42;99850.22;3137019;27;114389;-58
2020/12/07 01:07:15;;;;;;;;;;;;;;;21.53;39.37;99849.88;3136548;27;114159;-58
2020/12/07 01:08:46;;;;;;;;;;;;;;;21.52;39.19;99845.44;3135000;27;114030;-58
2020/12/07 01:10:17;;;;;;;;;;;;;;;21.54;39.22;99850.69;3136623;27;113688;-58
2020/12/07 01:11:53;;;;;;;;;;;;;;;21.54;39.19;99848.72;3135572;27;114211;-59
2020/12/07 01:13:24;;;;;;;;;;;;;;;21.55;39.03;99850.38;3134575;27;114194;-59
2020/12/07 01:14:55;;;;;;;;;;;;;;;21.54;39.21;99848.72;3136209;27;113897;-59
2020/12/07 01:16:26;;;;;;;;;;;;;;;21.55;39.10;99850.38;3135687;27;114167;-60
2020/12/07 01:17:57;;;;;;;;;;;;;;;21.55;39.06;99853.19;3135595;27;114309;-59
2020/12/07 01:19:29;;;;;;;;;;;;;;;21.54;39.20;99848.72;3133431;27;114475;-59
2020/12/07 01:21:01;;;;;;;;;;;;;;;21.54;38.86;99843.09;3135837;27;114124;-59
2020/12/07 01:22:32;;;;;;;;;;;;;;;21.55;38.98;99849.53;3136344;27;113975;-59
2020/12/07 01:24:04;;;;;;;;;;;;;;;21.54;38.77;99845.06;3134776;27;114697;-58
2020/12/07 01:25:35;;;;;;;;;;;;;;;21.53;39.17;99843.44;3136794;27;114052;-58
2020/12/07 01:27:07;;;;;;;;;;;;;;;21.52;38.82;99845.44;3125649;27;114275;-58
2020/12/07 01:28:38;;;;;;;;;;;;;;;21.52;38.99;99844.59;3129306;27;115175;-59
2020/12/07 01:30:12;;;;;;;;;;;;;;;21.51;39.00;99840.97;3135437;27;114970;-57
2020/12/07 01:31:43;;;;;;;;;;;;;;;21.50;39.02;99836.50;3135593;27;114588;-58
2020/12/07 01:33:15;;;;;;;;;;;;;;;21.50;39.07;99836.50;3134488;27;114892;-58
2020/12/07 01:34:46;;;;;;;;;;;;;;;21.47;39.04;99831.59;3136158;27;115261;-58
2020/12/07 01:36:18;;;;;;;;;;;;;;;21.47;39.31;99834.41;3136201;27;115183;-58
2020/12/07 01:37:49;;;;;;;;;;;;;;;21.46;39.17;99838.38;3122604;27;115261;-59
2020/12/07 01:39:20;;;;;;;;;;;;;;;21.45;39.39;99836.72;3130139;27;115071;-58
2020/12/07 01:40:51;;;;;;;;;;;;;;;21.44;39.28;99837.88;3136536;27;115276;-60
2020/12/07 01:42:22;;;;;;;;;;;;;;;21.44;39.21;99839.88;3129676;27;114173;-60
2020/12/07 01:43:53;;;;;;;;;;;;;;;21.44;39.11;99842.69;3133754;27;114099;-64
2020/12/07 01:45:25;;;;;;;;;;;;;;;21.42;39.08;99845.84;3122573;27;115284;-60
2020/12/07 01:46:56;;;;;;;;;;;;;;;21.41;39.12;99851.78;3113790;27;115200;-57
2020/12/07 01:48:28;;;;;;;;;;;;;;;21.40;39.04;99845.34;3123478;27;115287;-56
2020/12/07 01:50:01;;;;;;;;;;;;;;;21.38;39.29;99849.66;3135922;27;115751;-56
2020/12/07 01:51:35;;;;;;;;;;;;;;;21.37;39.46;99846.03;3136118;27;115955;-57
2020/12/07 01:53:07;;;;;;;;;;;;;;;21.34;39.37;99843.91;3131586;27;115739;-58
2020/12/07 01:54:38;;;;;;;;;;;;;;;21.35;39.59;99836.31;3114960;27;116280;-58
2020/12/07 01:56:11;;;;;;;;;;;;;;;21.34;39.69;99840.28;3117526;27;115808;-58
2020/12/07 01:57:42;;;;;;;;;;;;;;;21.32;39.91;99837.78;3130451;27;115986;-59
2020/12/07 01:59:13;;;;;;;;;;;;;;;21.30;39.91;99829.69;3120423;27;115969;-59
2020/12/07 02:00:44;;;;;;;;;;;;;;;21.29;39.51;99827.25;3124928;27;116325;-59
2020/12/07 02:02:16;;;;;;;;;;;;;;;21.29;39.76;99825.28;3135368;27;115360;-59
2020/12/07 02:03:47;;;;;;;;;;;;;;;21.27;39.68;99827.59;3132603;27;115035;-59
2020/12/07 02:05:18;;;;;;;;;;;;;;;21.24;39.65;99822.66;3123406;27;116031;-59
2020/12/07 02:06:50;;;;;;;;;;;;;;;21.25;39.46;99823.47;3131866;27;116329;-59
2020/12/07 02:08:21;;;;;;;;;;;;;;;21.23;39.80;99818.19;3120167;27;116112;-59
2020/12/07 02:09:52;;;;;;;;;;;;;;;21.21;39.38;99817.69;3134749;27;115852;-59
2020/12/07 02:11:23;;;;;;;;;;;;;;;21.20;39.48;99815.25;3120470;27;113974;-60
2020/12/07 02:12:54;;;;;;;;;;;;;;;21.20;39.55;99812.44;3120318;27;114040;-60
2020/12/07 02:14:25;;;;;;;;;;;;;;;21.17;39.57;99805.50;3121782;27;114419;-59
2020/12/07 02:15:57;;;;;;;;;;;;;;;21.15;39.33;99807.00;3122832;27;116943;-58
2020/12/07 02:17:28;;;;;;;;;;;;;;;21.13;39.51;99803.72;3122878;27;113929;-58
2020/12/07 02:18:59;;;;;;;;;;;;;;;21.12;39.77;99804.88;3120666;27;113887;-57
2020/12/07 02:20:30;;;;;;;;;;;;;;;21.09;39.71;99814.78;3122900;27;114003;-58
2020/12/07 02:22:02;;;;;;;;;;;;;;;21.08;39.97;99812.28;3121095;27;114932;-59
2020/12/07 02:23:33;;;;;;;;;;;;;;;21.07;39.94;99810.69;3116747;27;114547;-63
2020/12/07 02:25:04;;;;;;;;;;;;;;;21.05;39.61;99802.59;3117608;27;113836;-61
2020/12/07 02:26:36;;;;;;;;;;;;;;;21.01;39.59;99804.44;3121546;27;114150;-61
2020/12/07 02:28:07;;;;;;;;;;;;;;;21.01;39.68;99801.63;3120993;27;114138;-61
2020/12/07 02:29:38;;;;;;;;;;;;;;;20.98;39.99;99801.47;3122634;27;113695;-61
2020/12/07 02:31:09;;;;;;;;;;;;;;;20.96;39.82;99793.38;3126559;27;114309;-61
2020/12/07 02:32:41;;;;;;;;;;;;;;;20.95;39.68;99794.53;3122974;27;114137;-60
2020/12/07 02:34:12;;;;;;;;;;;;;;;20.93;39.79;99796.88;3120374;27;115348;-61
2020/12/07 02:35:43;;;;;;;;;;;;;;;20.91;40.01;99790.78;3122657;27;115872;-61
2020/12/07 02:37:26;;;;;;;;;;;;;;;20.90;39.86;99788.28;3114076;27;115854;-61
2020/12/07 02:39:02;;;;;;;;;;;;;;;20.88;39.86;99782.22;3118571;27;115100;-62
2020/12/07 02:40:33;;;;;;;;;;;;;;;20.86;40.10;99788.97;3114706;27;114318;-62
2020/12/07 02:42:05;;;;;;;;;;;;;;;20.87;39.97;99781.38;3115667;27;114297;-61
2020/12/07 02:43:36;;;;;;;;;;;;;;;20.84;40.03;99773.66;3114036;27;115290;-62
2020/12/07 02:45:09;;;;;;;;;;;;;;;20.82;40.19;99776.78;3112740;27;114451;-62
2020/12/07 02:46:40;;;;;;;;;;;;;;;20.81;39.90;99769.50;3122373;27;115180;-62
2020/12/07 02:48:11;;;;;;;;;;;;;;;20.79;40.24;99771.84;3120705;27;115210;-59
2020/12/07 02:49:43;;;;;;;;;;;;;;;20.78;40.41;99763.75;3121291;27;115453;-60
2020/12/07 02:51:14;;;;;;;;;;;;;;;20.76;40.24;99769.72;3122061;27;115353;-60
2020/12/07 02:52:45;;;;;;;;;;;;;;;20.74;40.25;99774.84;3125058;27;115619;-61
2020/12/07 02:54:16;;;;;;;;;;;;;;;20.73;40.16;99767.59;3115842;27;116425;-60
2020/12/07 02:55:48;;;;;;;;;;;;;;;20.73;40.57;99772.38;3122284;27;115760;-61
2020/12/07 02:57:19;;;;;;;;;;;;;;;20.70;40.55;99768.28;3121990;27;116954;-61
2020/12/07 02:58:51;;;;;;;;;;;;;;;20.67;40.92;99774.53;3121103;27;114340;-62
2020/12/07 03:00:22;;;;;;;;;;;;;;;20.68;40.50;99769.75;3122526;27;115921;-63
2020/12/07 03:01:53;;;;;;;;;;;;;;;20.66;40.71;99774.91;3122463;27;115944;-64
2020/12/07 03:03:24;;;;;;;;;;;;;;;20.65;40.51;99776.06;3120495;27;116106;-64
2020/12/07 03:04:56;;;;;;;;;;;;;;;20.63;40.56;99769.94;3120058;27;115941;-63
2020/12/07 03:06:27;;;;;;;;;;;;;;;20.63;40.87;99775.56;3121520;27;115772;-63
2020/12/07 03:07:59;;;;;;;;;;;;;;;20.61;40.47;99770.31;3121701;27;115738;-63
2020/12/07 03:09:30;;;;;;;;;;;;;;;20.58;40.63;99762.53;3122483;27;115822;-63
2020/12/07 03:11:03;;;;;;;;;;;;;;;20.54;40.54;99770.00;3121937;27;115787;-63
2020/12/07 03:12:34;;;;;;;;;;;;;;;20.53;40.59;99773.97;3130966;27;114471;-63
2020/12/07 03:14:05;;;;;;;;;;;;;;;20.52;40.33;99765.88;3133796;27;115875;-63
2020/12/07 03:15:37;;;;;;;;;;;;;;;20.48;40.40;99762.94;3138459;27;115864;-63
2020/12/07 03:17:08;;;;;;;;;;;;;;;20.48;40.29;99764.91;3133888;27;114519;-64
2020/12/07 03:18:39;;;;;;;;;;;;;;;20.45;40.32;99760.78;3134585;27;114099;-63
2020/12/07 03:20:10;;;;;;;;;;;;;;;20.44;40.41;99763.94;3139086;27;113918;-60
2020/12/07 03:21:41;;;;;;;;;;;;;;;20.44;40.11;99763.94;3124420;27;114348;-60
2020/12/07 03:23:13;;;;;;;;;;;;;;;20.40;40.53;99764.59;3132398;27;114335;-59
2020/12/07 03:24:44;;;;;;;;;;;;;;;20.39;40.26;99765.78;3139072;27;114835;-60
2020/12/07 03:26:15;;;;;;;;;;;;;;;20.35;40.33;99761.97;3137161;27;114178;-63
2020/12/07 03:27:46;;;;;;;;;;;;;;;20.34;40.46;99762.34;3124355;27;114034;-63
2020/12/07 03:29:17;;;;;;;;;;;;;;;20.32;40.42;99765.47;3118434;27;114022;-63
2020/12/07 03:30:49;;;;;;;;;;;;;;;20.30;40.38;99767.81;3130785;27;114588;-63
2020/12/07 03:32:20;;;;;;;;;;;;;;;20.26;40.58;99763.97;3139171;27;114830;-63
2020/12/07 03:33:51;;;;;;;;;;;;;;;20.27;40.55;99765.63;3132877;27;114190;-63
2020/12/07 03:35:22;;;;;;;;;;;;;;;20.23;40.60;99759.03;3138717;27;114072;-63
2020/12/07 03:36:53;;;;;;;;;;;;;;;20.22;40.63;99762.16;3141511;27;115345;-65
2020/12/07 03:38:24;;;;;;;;;;;;;;;20.20;41.00;99765.31;3136456;27;114487;-62
2020/12/07 03:39:56;;;;;;;;;;;;;;;20.19;40.54;99758.06;3138935;27;114998;-60
2020/12/07 03:41:27;;;;;;;;;;;;;;;20.16;40.88;99753.13;3138379;27;117674;-57
2020/12/07 03:42:59;;;;;;;;;;;;;;;20.15;40.76;99747.84;3130946;27;114668;-59
2020/12/07 03:44:30;;;;;;;;;;;;;;;20.13;40.70;99748.16;3131797;27;115219;-59
2020/12/07 03:46:02;;;;;;;;;;;;;;;20.11;40.56;99747.69;3139108;27;117500;-59
2020/12/07 03:47:33;;;;;;;;;;;;;;;20.10;40.64;99748.84;3124579;27;115476;-61
2020/12/07 03:49:04;;;;;;;;;;;;;;;20.08;40.64;99748.34;3133132;27;114427;-59
2020/12/07 03:50:35;;;;;;;;;;;;;;;20.06;40.60;99747.06;3138636;27;115244;-59
2020/12/07 03:52:06;;;;;;;;;;;;;;;20.05;40.74;99739.78;3138602;27;114861;-59
2020/12/07 03:53:38;;;;;;;;;;;;;;;20.04;40.83;99732.53;3123730;27;114958;-58
2020/12/07 03:55:09;;;;;;;;;;;;;;;20.03;40.60;99736.50;3132543;27;115190;-59
2020/12/07 03:56:40;;;;;;;;;;;;;;;19.99;40.85;99733.53;3138282;27;115218;-67
2020/12/07 03:58:12;;;;;;;;;;;;;;;19.98;40.61;99732.75;3127105;27;114042;-59
2020/12/07 03:59:43;;;;;;;;;;;;;;;19.96;40.96;99726.63;3134465;27;115561;-60
2020/12/07 04:01:14;;;;;;;;;;;;;;;19.93;41.02;99727.31;3138557;27;115987;-59
2020/12/07 04:02:45;;;;;;;;;;;;;;;19.92;41.00;99719.22;3138492;27;114891;-59
2020/12/07 04:04:20;;;;;;;;;;;;;;;19.90;40.96;99716.75;3135588;27;114813;-59
2020/12/07 04:06:17;;;;;;;;;;;;;;;19.88;40.79;99716.28;3122554;27;114312;-59
2020/12/07 04:07:43;;;;;;;;;;;;;;;19.88;40.72;99721.06;3125085;27;115903;-59
2020/12/07 04:09:14;;;;;;;;;;;;;;;19.86;40.82;99721.38;3137137;27;116027;-58
2020/12/07 04:10:46;;;;;;;;;;;;;;;19.85;41.02;99713.31;3138804;27;115947;-58
2020/12/07 04:12:17;;;;;;;;;;;;;;;19.83;40.67;99718.41;3137307;27;115909;-59
2020/12/07 04:13:48;;;;;;;;;;;;;;;19.81;41.03;99721.53;3136383;27;115427;-59
2020/12/07 04:15:19;;;;;;;;;;;;;;;19.78;40.73;99716.63;3138679;27;115948;-59
2020/12/07 04:16:50;;;;;;;;;;;;;;;19.77;40.90;99714.13;3138102;27;115203;-59
2020/12/07 04:18:21;;;;;;;;;;;;;;;19.75;40.84;99710.88;3136663;27;114626;-61
2020/12/07 04:19:53;;;;;;;;;;;;;;;19.73;40.94;99714.00;3127568;27;116072;-61
2020/12/07 04:21:24;;;;;;;;;;;;;;;19.71;41.07;99713.50;3133872;27;113792;-61
2020/12/07 04:22:55;;;;;;;;;;;;;;;19.71;40.77;99710.72;3137874;27;113892;-61
2020/12/07 04:24:26;;;;;;;;;;;;;;;19.72;41.09;99717.13;3136904;27;113931;-61
2020/12/07 04:25:58;;;;;;;;;;;;;;;19.67;41.22;99715.31;3138355;27;113733;-63
2020/12/07 04:27:29;;;;;;;;;;;;;;;19.67;40.99;99717.31;3137684;27;116717;-63
2020/12/07 04:29:01;;;;;;;;;;;;;;;19.66;41.26;99712.88;3137509;27;114083;-63
2020/12/07 04:30:32;;;;;;;;;;;;;;;19.62;41.07;99707.09;3135143;27;113962;-63
2020/12/07 04:32:03;;;;;;;;;;;;;;;19.61;41.26;99711.06;3136336;27;114020;-64
2020/12/07 04:33:34;;;;;;;;;;;;;;;19.60;41.24;99702.97;3120877;27;114474;-64
2020/12/07 04:35:05;;;;;;;;;;;;;;;19.58;41.35;99703.28;3131443;27;114182;-64
2020/12/07 04:36:37;;;;;;;;;;;;;;;19.59;41.16;99710.56;3136331;27;114614;-63
2020/12/07 04:38:08;;;;;;;;;;;;;;;19.54;41.25;99711.56;3136043;27;114118;-63
2020/12/07 04:39:39;;;;;;;;;;;;;;;19.57;41.15;99717.66;3123199;27;114528;-63
2020/12/07 04:41:10;;;;;;;;;;;;;;;19.55;41.16;99709.56;3118042;27;114537;-62
2020/12/07 04:42:42;;;;;;;;;;;;;;;19.54;41.36;99714.34;3131026;27;113910;-61
2020/12/07 04:44:13;;;;;;;;;;;;;;;19.53;41.29;99706.31;3134608;27;114171;-64
2020/12/07 04:45:44;;;;;;;;;;;;;;;19.50;41.31;99707.78;3122648;27;114612;-61
2020/12/07 04:47:18;;;;;;;;;;;;;;;19.49;41.31;99699.69;3132127;27;115342;-62
2020/12/07 04:48:51;;;;;;;;;;;;;;;19.48;41.36;99700.88;3122121;27;114305;-68
2020/12/07 04:50:23;;;;;;;;;;;;;;;19.47;41.36;99702.84;3137113;27;114272;-61
2020/12/07 04:51:54;;;;;;;;;;;;;;;19.46;41.40;99692.78;3136448;27;115257;-61
2020/12/07 04:53:26;;;;;;;;;;;;;;;19.45;41.18;99691.13;3121957;27;114835;-61
2020/12/07 04:55:00;;;;;;;;;;;;;;;19.45;41.21;99693.09;3132464;27;115306;-61
2020/12/07 04:56:32;;;;;;;;;;;;;;;19.42;41.55;99696.53;3135833;27;114188;-61
2020/12/07 04:58:04;;;;;;;;;;;;;;;19.40;41.17;99688.47;3135164;27;114307;-61
2020/12/07 04:59:37;;;;;;;;;;;;;;;19.38;41.25;99693.59;3135871;27;116738;-61
2020/12/07 05:01:09;;;;;;;;;;;;;;;19.38;41.19;99687.16;3122472;27;115319;-61
2020/12/07 05:02:40;;;;;;;;;;;;;;;19.38;41.25;99684.38;3132274;27;115181;-61
2020/12/07 05:04:11;;;;;;;;;;;;;;;19.35;41.47;99683.03;3138716;27;114670;-61
2020/12/07 05:05:42;;;;;;;;;;;;;;;19.34;41.37;99677.78;3136641;27;115732;-62
2020/12/07 05:07:14;;;;;;;;;;;;;;;19.30;41.33;99677.63;3122353;27;115847;-62
2020/12/07 05:08:45;;;;;;;;;;;;;;;19.30;41.26;99680.44;3130478;27;115564;-62
2020/12/07 05:10:22;;;;;;;;;;;;;;;19.31;41.43;99667.22;3135251;27;115955;-62
2020/12/07 05:11:54;;;;;;;;;;;;;;;19.31;41.39;99675.63;3121141;27;114847;-62
2020/12/07 05:13:33;;;;;;;;;;;;;;;19.34;41.52;99675.81;3129921;27;115052;-60
2020/12/07 05:15:06;;;;;;;;;;;;;;;19.36;41.64;99678.25;3136106;27;114679;-60
2020/12/07 05:16:37;;;;;;;;;;;;;;;19.37;41.45;99680.75;3135707;27;114670;-60
2020/12/07 05:18:08;;;;;;;;;;;;;;;19.43;41.52;99673.00;3119055;27;114659;-60
2020/12/07 05:19:39;;;;;;;;;;;;;;;19.44;41.59;99678.28;3121125;27;115908;-60
2020/12/07 05:21:10;;;;;;;;;;;;;;;19.47;41.44;99672.03;3125440;27;114783;-61
2020/12/07 05:22:41;;;;;;;;;;;;;;;19.49;41.42;99661.28;3122753;27;115797;-60
2020/12/07 05:24:13;;;;;;;;;;;;;;;19.53;41.66;99664.28;3131310;27;116003;-63
2020/12/07 05:25:47;;;;;;;;;;;;;;;19.56;41.58;99663.59;3140031;27;115941;-61
2020/12/07 05:27:19;;;;;;;;;;;;;;;19.60;41.55;99660.94;3135187;27;114519;-61
2020/12/07 05:28:53;;;;;;;;;;;;;;;19.64;41.68;99659.13;3132319;27;114564;-61
2020/12/07 05:30:41;;;;;;;;;;;;;;;19.66;41.75;99662.44;3134191;27;114188;-61
2020/12/07 05:32:12;;;;;;;;;;;;;;;19.71;41.87;99663.06;3134349;27;114074;-61
2020/12/07 05:33:44;;;;;;;;;;;;;;;19.73;41.85;99659.91;3134778;27;114056;-61
2020/12/07 05:35:16;;;;;;;;;;;;;;;19.76;42.02;99657.25;3136199;27;113656;-61
2020/12/07 05:36:52;;;;;;;;;;;;;;;19.78;41.94;99654.97;3136485;27;113586;-60
2020/12/07 05:38:33;;;;;;;;;;;;;;;19.83;41.80;99654.78;3135311;27;114597;-60
2020/12/07 05:40:09;;;;;;;;;;;;;;;19.86;41.79;99656.06;3136144;27;114392;-60
2020/12/07 05:41:40;;;;;;;;;;;;;;;19.88;41.74;99660.22;3134486;27;114328;-60
2020/12/07 05:43:12;;;;;;;;;;;;;;;19.91;41.72;99653.91;3134571;27;114373;-60
2020/12/07 05:44:45;;;;;;;;;;;;;;;19.94;41.53;99656.03;3136859;27;114182;-60
2020/12/07 05:46:16;;;;;;;;;;;;;;;19.98;41.44;99651.44;3135580;27;114372;-60
2020/12/07 05:47:48;;;;;;;;;;;;;;;20.01;41.38;99649.09;3139729;27;114318;-60
2020/12/07 05:49:22;;;;;;;;;;;;;;;20.03;41.34;99635.59;3134797;27;115283;-60
2020/12/07 05:50:54;;;;;;;;;;;;;;;20.07;41.31;99645.78;3135914;27;115140;-61
2020/12/07 05:52:41;;;;;;;;;;;;;;;20.10;41.53;99644.28;3136245;27;115130;-61
2020/12/07 05:54:13;;;;;;;;;;;;;;;20.12;41.20;99645.59;3121314;27;115170;-60
2020/12/07 05:55:50;;;;;;;;;;;;;;;20.15;41.19;99650.53;3121417;27;114077;-61
2020/12/07 05:57:27;;;;;;;;;;;;;;;20.18;41.24;99649.84;3135035;27;114084;-64
2020/12/07 05:59:09;;;;;;;;;;;;;;;20.19;41.36;99650.66;3134953;27;115476;-63
2020/12/07 06:00:42;;;;;;;;;;;;;;;20.21;41.02;99649.19;3124157;27;115088;-62
2020/12/07 06:02:15;;;;;;;;;;;;;;;20.22;41.10;99652.78;3123401;27;115262;-59
2020/12/07 06:03:47;;;;;;;;;;;;;;;20.24;41.16;99658.88;3132621;27;114818;-59
2020/12/07 06:05:19;;;;;;;;;;;;;;;20.26;41.21;99660.19;3135065;27;115250;-60
2020/12/07 06:06:52;;;;;;;;;;;;;;;20.27;41.14;99655.41;3121818;27;114575;-59
2020/12/07 06:08:30;;;;;;;;;;;;;;;20.29;41.32;99659.53;3128695;27;114809;-58
2020/12/07 06:10:03;;;;;;;;;;;;;;;20.33;41.17;99654.09;3139771;27;115209;-58
2020/12/07 06:11:38;;;;;;;;;;;;;;;20.35;41.00;99654.59;3134507;27;115249;-58
2020/12/07 06:13:12;;;;;;;;;;;;;;;20.36;41.28;99657.03;3134122;27;115934;-58
2020/12/07 06:14:43;;;;;;;;;;;;;;;20.39;41.14;99658.34;3135586;27;115222;-57
2020/12/07 06:16:15;;;;;;;;;;;;;;;20.39;40.82;99647.97;3135308;27;114602;-58
2020/12/07 06:17:49;;;;;;;;;;;;;;;20.42;40.76;99657.66;3135695;27;115826;-58
2020/12/07 06:19:30;;;;;;;;;;;;;;;20.44;40.71;99660.97;3109031;27;116215;-58
2020/12/07 06:21:04;;;;;;;;;;;;;;;20.46;40.99;99664.25;3123150;27;115843;-57
2020/12/07 06:22:36;;;;;;;;;;;;;;;20.48;40.88;99663.91;3133909;27;115831;-58
2020/12/07 06:24:08;;;;;;;;;;;;;;;20.49;40.79;99663.56;3134605;27;115254;-64
2020/12/07 06:25:41;;;;;;;;;;;;;;;20.51;40.81;99661.25;3135803;27;115815;-57
2020/12/07 06:27:14;;;;;;;;;;;;;;;20.53;40.63;99660.91;3134514;27;114560;-57
2020/12/07 06:28:46;;;;;;;;;;;;;;;20.56;40.61;99657.41;3119744;27;114775;-57
2020/12/07 06:30:18;;;;;;;;;;;;;;;20.57;40.68;99659.91;3131467;27;115658;-58
2020/12/07 06:31:52;;;;;;;;;;;;;;;20.58;40.62;99653.09;3135411;27;115723;-58
2020/12/07 06:33:24;;;;;;;;;;;;;;;20.60;40.69;99659.19;3137248;27;115997;-58
2020/12/07 06:34:57;;;;;;;;;;;;;;;20.62;40.50;99659.69;3135908;27;114097;-58
2020/12/07 06:36:29;;;;;;;;;;;;;;;20.64;40.54;99653.72;3134139;27;114196;-58
2020/12/07 06:38:02;;;;;;;;;;;;;;;20.65;40.54;99667.44;3120887;27;115412;-58
2020/12/07 06:39:40;;;;;;;;;;;;;;;20.67;40.46;99658.69;3131190;27;114615;-58
2020/12/07 06:41:12;;;;;;;;;;;;;;;20.68;40.45;99661.13;3135185;27;113852;-58
2020/12/07 06:42:48;;;;;;;;;;;;;;;20.69;40.42;99659.97;3120907;27;114423;-58
2020/12/07 06:44:23;;;;;;;;;;;;;;;20.71;40.25;99657.66;3130250;27;114132;-62
2020/12/07 06:45:54;;;;;;;;;;;;;;;20.73;40.20;99657.28;3135506;27;114059;-62
2020/12/07 06:47:27;;;;;;;;;;;;;;;20.74;40.36;99661.75;3135485;27;114197;-62
2020/12/07 06:48:58;;;;;;;;;;;;;;;20.75;40.34;99658.59;3133252;27;114166;-61
2020/12/07 06:50:31;;;;;;;;;;;;;;;20.76;40.36;99657.41;3135709;27;114011;-62
2020/12/07 06:52:09;;;;;;;;;;;;;;;20.78;39.98;99660.72;3123440;27;114452;-59
2020/12/07 06:53:45;;;;;;;;;;;;;;;20.78;40.22;99660.72;3133578;27;114043;-58
2020/12/07 06:55:17;;;;;;;;;;;;;;;20.81;40.20;99657.22;3137062;27;114273;-58
2020/12/07 06:56:49;;;;;;;;;;;;;;;20.82;40.19;99658.88;3134430;27;115136;-58
2020/12/07 06:58:36;;;;;;;;;;;;;;;20.83;40.17;99652.09;3133413;27;115276;-59
2020/12/07 07:00:09;;;;;;;;;;;;;;;20.86;40.39;99651.41;3135674;27;115238;-59
2020/12/07 07:01:49;;;;;;;;;;;;;;;20.88;40.21;99650.25;3121559;27;113993;-58
2020/12/07 07:03:20;;;;;;;;;;;;;;;20.89;40.11;99637.88;3116998;27;115337;-58
2020/12/07 07:04:56;;;;;;;;;;;;;;;20.90;40.06;99645.09;3130991;27;115191;-58
2020/12/07 07:06:27;;;;;;;;;;;;;;;20.91;39.87;99644.75;3115322;27;114336;-59
2020/12/07 07:07:59;;;;;;;;;;;;;;;20.92;39.96;99639.97;3108612;27;115193;-59
2020/12/07 07:09:30;;;;;;;;;;;;;;;20.94;39.89;99640.47;3120716;27;114582;-59
2020/12/07 07:11:03;;;;;;;;;;;;;;;20.96;40.08;99641.75;3134748;27;114034;-58
2020/12/07 07:12:36;;;;;;;;;;;;;;;20.98;40.12;99635.81;3133715;27;114738;-59
2020/12/07 07:14:07;;;;;;;;;;;;;;;20.99;39.89;99634.63;3120185;27;115211;-59
2020/12/07 07:15:42;;;;;;;;;;;;;;;21.00;39.91;99634.28;3131216;27;115245;-60
2020/12/07 07:17:13;;;;;;;;;;;;;;;21.02;39.75;99629.16;3128563;27;114089;-60
2020/12/07 07:18:45;;;;;;;;;;;;;;;21.03;39.82;99629.97;3129357;27;114594;-60
2020/12/07 07:20:17;;;;;;;;;;;;;;;21.05;39.77;99636.88;3134918;27;117648;-60
2020/12/07 07:21:49;;;;;;;;;;;;;;;21.07;39.93;99633.75;3120236;27;115909;-59
2020/12/07 07:23:21;;;;;;;;;;;;;;;21.08;40.00;99632.56;3123543;27;114534;-58
2020/12/07 07:26:44;;;;;;;;;;;;;;;21.10;39.48;99628.25;3133469;27;115133;-57
2020/12/07 07:28:16;;;;;;;;;;;;;;;21.12;39.39;99630.72;3132837;27;115002;-57
2020/12/07 07:29:47;;;;;;;;;;;;;;;21.13;39.56;99627.59;3135351;27;116030;-57
2020/12/07 07:31:18;;;;;;;;;;;;;;;21.15;39.78;99630.06;3135166;27;115691;-57
2020/12/07 07:33:09;;;;;;;;;;;;;;;21.16;39.51;99628.91;3118668;27;115773;-58
2020/12/07 07:34:55;;;;;;;;;;;;;;;21.17;39.34;99628.53;3123359;27;114916;-57
2020/12/07 07:36:26;;;;;;;;;;;;;;;21.18;39.54;99634.97;3122816;27;115935;-58
2020/12/07 07:37:58;;;;;;;;;;;;;;;21.18;39.73;99633.00;3133870;27;114814;-58
2020/12/07 07:39:37;;;;;;;;;;;;;;;21.20;39.42;99632.66;3124069;27;115368;-58
2020/12/07 07:41:20;;;;;;;;;;;;;;;21.21;39.51;99632.28;3132000;27;114857;-58
2020/12/07 07:42:56;;;;;;;;;;;;;;;21.22;39.25;99631.13;3133628;27;114009;-62
2020/12/07 07:44:27;;;;;;;;;;;;;;;21.24;39.22;99636.41;3134163;27;114089;-58
2020/12/07 07:46:01;;;;;;;;;;;;;;;21.24;39.18;99637.25;3135228;27;113975;-59
2020/12/07 07:47:41;;;;;;;;;;;;;;;21.26;39.07;99640.50;3134859;27;113973;-58
2020/12/07 07:49:38;;;;;;;;;;;;;;;21.28;39.00;99637.38;3119503;27;114187;-59
2020/12/07 07:57:52;;;;;;;;;;;;;;;21.32;39.38;99634.69;3134416;27;113845;-59
2020/12/07 08:16:58;;;;;;;;;;;;;;;21.42;39.25;99637.88;3136731;27;114206;-58
2020/12/07 08:18:44;;;;;;;;;;;;;;;21.40;38.88;99640.22;3132826;27;115443;-57
2020/12/07 08:20:22;;;;;;;;;;;;;;;21.33;38.83;99639.97;3135748;27;114602;-56
2020/12/07 08:21:53;;;;;;;;;;;;;;;21.28;38.48;99646.63;3135435;27;115380;-57